sensor_id;sensor_type;location;lat;lon;timestamp;P1;durP1;ratioP1;P2;durP2;ratioP2
12631;SDS011;6381;45.748;12.106;2024-02-23T00:01:11;50.83;;;43.60;;
12631;SDS011;6381;45.748;12.106;2024-02-23T00:03:41;52.37;;;45.63;;
12631;SDS011;6381;45.748;12.106;2024-02-23T00:06:12;49.33;;;44.00;;
12631;SDS011;6381;45.748;12.106;2024-02-23T00:08:43;46.70;;;41.53;;
12631;SDS011;6381;45.748;12.106;2024-02-23T00:11:12;48.67;;;41.93;;
12631;SDS011;6381;45.748;12.106;2024-02-23T00:13:42;49.17;;;43.63;;
12631;SDS011;6381;45.748;12.106;2024-02-23T00:16:12;49.53;;;43.00;;
12631;SDS011;6381;45.748;12.106;2024-02-23T00:18:42;46.53;;;40.83;;
12631;SDS011;6381;45.748;12.106;2024-02-23T00:21:13;50.10;;;42.67;;
12631;SDS011;6381;45.748;12.106;2024-02-23T00:23:43;48.57;;;40.70;;
12631;SDS011;6381;45.748;12.106;2024-02-23T00:26:13;46.73;;;41.10;;
12631;SDS011;6381;45.748;12.106;2024-02-23T00:28:43;44.50;;;39.27;;
12631;SDS011;6381;45.748;12.106;2024-02-23T00:31:12;43.87;;;37.43;;
12631;SDS011;6381;45.748;12.106;2024-02-23T00:33:42;40.20;;;35.90;;
12631;SDS011;6381;45.748;12.106;2024-02-23T00:36:13;39.67;;;35.37;;
12631;SDS011;6381;45.748;12.106;2024-02-23T00:38:44;39.43;;;35.23;;
12631;SDS011;6381;45.748;12.106;2024-02-23T00:41:14;38.37;;;34.17;;
12631;SDS011;6381;45.748;12.106;2024-02-23T00:43:44;37.67;;;33.67;;
12631;SDS011;6381;45.748;12.106;2024-02-23T00:46:15;35.70;;;31.97;;
12631;SDS011;6381;45.748;12.106;2024-02-23T00:48:44;36.03;;;32.13;;
12631;SDS011;6381;45.748;12.106;2024-02-23T00:51:16;34.43;;;30.87;;
12631;SDS011;6381;45.748;12.106;2024-02-23T00:53:46;32.53;;;29.07;;
12631;SDS011;6381;45.748;12.106;2024-02-23T00:56:15;33.30;;;29.80;;
12631;SDS011;6381;45.748;12.106;2024-02-23T00:58:47;31.90;;;28.60;;
12631;SDS011;6381;45.748;12.106;2024-02-23T01:01:17;29.60;;;26.57;;
12631;SDS011;6381;45.748;12.106;2024-02-23T01:03:47;29.17;;;26.27;;
12631;SDS011;6381;45.748;12.106;2024-02-23T01:06:18;28.43;;;25.43;;
12631;SDS011;6381;45.748;12.106;2024-02-23T01:08:48;28.80;;;25.80;;
12631;SDS011;6381;45.748;12.106;2024-02-23T01:11:18;27.83;;;24.97;;
12631;SDS011;6381;45.748;12.106;2024-02-23T01:13:48;26.77;;;24.00;;
12631;SDS011;6381;45.748;12.106;2024-02-23T01:16:18;28.40;;;25.60;;
12631;SDS011;6381;45.748;12.106;2024-02-23T01:18:48;28.07;;;25.17;;
12631;SDS011;6381;45.748;12.106;2024-02-23T01:21:19;28.70;;;25.70;;
12631;SDS011;6381;45.748;12.106;2024-02-23T01:23:49;28.90;;;25.87;;
12631;SDS011;6381;45.748;12.106;2024-02-23T01:26:18;28.50;;;25.50;;
12631;SDS011;6381;45.748;12.106;2024-02-23T01:28:48;28.33;;;25.43;;
12631;SDS011;6381;45.748;12.106;2024-02-23T01:31:19;28.90;;;25.83;;
12631;SDS011;6381;45.748;12.106;2024-02-23T01:33:49;27.97;;;25.03;;
12631;SDS011;6381;45.748;12.106;2024-02-23T01:36:20;29.10;;;26.00;;
12631;SDS011;6381;45.748;12.106;2024-02-23T01:38:50;25.37;;;22.80;;
12631;SDS011;6381;45.748;12.106;2024-02-23T01:41:20;25.17;;;22.70;;
12631;SDS011;6381;45.748;12.106;2024-02-23T01:43:50;25.40;;;22.80;;
12631;SDS011;6381;45.748;12.106;2024-02-23T01:46:20;26.33;;;23.67;;
12631;SDS011;6381;45.748;12.106;2024-02-23T01:48:50;26.90;;;24.20;;
12631;SDS011;6381;45.748;12.106;2024-02-23T01:51:22;25.70;;;23.00;;
12631;SDS011;6381;45.748;12.106;2024-02-23T01:53:52;27.20;;;23.73;;
12631;SDS011;6381;45.748;12.106;2024-02-23T01:56:21;25.87;;;23.40;;
12631;SDS011;6381;45.748;12.106;2024-02-23T01:58:52;25.77;;;23.07;;
12631;SDS011;6381;45.748;12.106;2024-02-23T02:01:23;25.93;;;23.30;;
12631;SDS011;6381;45.748;12.106;2024-02-23T02:03:53;26.60;;;24.00;;
12631;SDS011;6381;45.748;12.106;2024-02-23T02:06:25;26.27;;;22.53;;
12631;SDS011;6381;45.748;12.106;2024-02-23T02:08:55;24.83;;;22.23;;
12631;SDS011;6381;45.748;12.106;2024-02-23T02:11:25;25.03;;;22.43;;
12631;SDS011;6381;45.748;12.106;2024-02-23T02:13:55;25.07;;;22.40;;
12631;SDS011;6381;45.748;12.106;2024-02-23T02:16:24;24.53;;;21.93;;
12631;SDS011;6381;45.748;12.106;2024-02-23T02:18:54;24.17;;;21.70;;
12631;SDS011;6381;45.748;12.106;2024-02-23T02:21:26;23.33;;;20.93;;
12631;SDS011;6381;45.748;12.106;2024-02-23T02:23:56;21.97;;;19.77;;
12631;SDS011;6381;45.748;12.106;2024-02-23T02:26:27;22.03;;;19.80;;
12631;SDS011;6381;45.748;12.106;2024-02-23T02:28:57;21.00;;;18.83;;
12631;SDS011;6381;45.748;12.106;2024-02-23T02:31:27;19.50;;;17.50;;
12631;SDS011;6381;45.748;12.106;2024-02-23T02:33:57;19.43;;;17.37;;
12631;SDS011;6381;45.748;12.106;2024-02-23T02:36:28;17.80;;;15.90;;
12631;SDS011;6381;45.748;12.106;2024-02-23T02:38:58;17.27;;;15.57;;
12631;SDS011;6381;45.748;12.106;2024-02-23T02:41:28;16.37;;;14.77;;
12631;SDS011;6381;45.748;12.106;2024-02-23T02:43:58;16.50;;;14.73;;
12631;SDS011;6381;45.748;12.106;2024-02-23T02:46:28;14.80;;;13.40;;
12631;SDS011;6381;45.748;12.106;2024-02-23T02:48:58;14.20;;;12.80;;
12631;SDS011;6381;45.748;12.106;2024-02-23T02:51:29;14.97;;;13.57;;
12631;SDS011;6381;45.748;12.106;2024-02-23T02:53:59;13.47;;;12.27;;
12631;SDS011;6381;45.748;12.106;2024-02-23T02:56:28;12.23;;;11.07;;
12631;SDS011;6381;45.748;12.106;2024-02-23T02:58:58;12.10;;;10.90;;
12631;SDS011;6381;45.748;12.106;2024-02-23T03:01:28;10.97;;;9.97;;
12631;SDS011;6381;45.748;12.106;2024-02-23T03:03:58;11.10;;;10.00;;
12631;SDS011;6381;45.748;12.106;2024-02-23T03:06:30;11.00;;;10.00;;
12631;SDS011;6381;45.748;12.106;2024-02-23T03:09:00;11.40;;;10.20;;
12631;SDS011;6381;45.748;12.106;2024-02-23T03:11:30;11.37;;;9.97;;
12631;SDS011;6381;45.748;12.106;2024-02-23T03:14:00;11.33;;;10.23;;
12631;SDS011;6381;45.748;12.106;2024-02-23T03:16:30;10.33;;;9.40;;
12631;SDS011;6381;45.748;12.106;2024-02-23T03:19:01;9.87;;;8.87;;
12631;SDS011;6381;45.748;12.106;2024-02-23T03:21:33;10.60;;;9.67;;
12631;SDS011;6381;45.748;12.106;2024-02-23T03:24:06;11.10;;;10.10;;
12631;SDS011;6381;45.748;12.106;2024-02-23T03:26:36;10.90;;;9.80;;
12631;SDS011;6381;45.748;12.106;2024-02-23T03:29:06;11.30;;;10.13;;
12631;SDS011;6381;45.748;12.106;2024-02-23T03:31:36;10.37;;;9.00;;
12631;SDS011;6381;45.748;12.106;2024-02-23T03:34:06;9.87;;;8.97;;
12631;SDS011;6381;45.748;12.106;2024-02-23T03:36:37;10.10;;;9.07;;
12631;SDS011;6381;45.748;12.106;2024-02-23T03:39:07;9.17;;;8.33;;
12631;SDS011;6381;45.748;12.106;2024-02-23T03:41:38;9.63;;;8.60;;
12631;SDS011;6381;45.748;12.106;2024-02-23T03:44:07;9.40;;;8.40;;
12631;SDS011;6381;45.748;12.106;2024-02-23T03:46:37;9.33;;;8.43;;
12631;SDS011;6381;45.748;12.106;2024-02-23T03:49:06;8.70;;;7.80;;
12631;SDS011;6381;45.748;12.106;2024-02-23T03:51:38;8.53;;;7.70;;
12631;SDS011;6381;45.748;12.106;2024-02-23T03:54:07;9.37;;;7.33;;
12631;SDS011;6381;45.748;12.106;2024-02-23T03:56:38;8.30;;;6.80;;
12631;SDS011;6381;45.748;12.106;2024-02-23T03:59:09;7.53;;;6.83;;
12631;SDS011;6381;45.748;12.106;2024-02-23T04:01:39;7.67;;;6.97;;
12631;SDS011;6381;45.748;12.106;2024-02-23T04:04:09;8.60;;;6.63;;
12631;SDS011;6381;45.748;12.106;2024-02-23T04:06:40;7.67;;;6.57;;
12631;SDS011;6381;45.748;12.106;2024-02-23T04:09:10;8.33;;;6.90;;
12631;SDS011;6381;45.748;12.106;2024-02-23T04:11:40;8.27;;;6.63;;
12631;SDS011;6381;45.748;12.106;2024-02-23T04:14:10;7.93;;;6.00;;
12631;SDS011;6381;45.748;12.106;2024-02-23T04:16:40;6.87;;;6.13;;
12631;SDS011;6381;45.748;12.106;2024-02-23T04:19:10;6.80;;;5.63;;
12631;SDS011;6381;45.748;12.106;2024-02-23T04:21:41;7.13;;;6.37;;
12631;SDS011;6381;45.748;12.106;2024-02-23T04:24:11;6.80;;;6.10;;
12631;SDS011;6381;45.748;12.106;2024-02-23T04:26:41;7.43;;;6.63;;
12631;SDS011;6381;45.748;12.106;2024-02-23T04:29:11;8.03;;;6.37;;
12631;SDS011;6381;45.748;12.106;2024-02-23T04:31:40;6.43;;;5.70;;
12631;SDS011;6381;45.748;12.106;2024-02-23T04:34:11;7.93;;;6.23;;
12631;SDS011;6381;45.748;12.106;2024-02-23T04:36:42;6.70;;;6.00;;
12631;SDS011;6381;45.748;12.106;2024-02-23T04:39:12;7.60;;;6.13;;
12631;SDS011;6381;45.748;12.106;2024-02-23T04:41:43;10.00;;;6.20;;
12631;SDS011;6381;45.748;12.106;2024-02-23T04:44:13;7.20;;;6.30;;
12631;SDS011;6381;45.748;12.106;2024-02-23T04:46:42;7.77;;;6.43;;
12631;SDS011;6381;45.748;12.106;2024-02-23T04:49:12;7.23;;;6.30;;
12631;SDS011;6381;45.748;12.106;2024-02-23T04:51:44;9.33;;;6.43;;
12631;SDS011;6381;45.748;12.106;2024-02-23T04:54:14;7.53;;;6.30;;
12631;SDS011;6381;45.748;12.106;2024-02-23T04:56:44;6.70;;;6.00;;
12631;SDS011;6381;45.748;12.106;2024-02-23T04:59:14;7.17;;;6.40;;
12631;SDS011;6381;45.748;12.106;2024-02-23T05:01:44;8.00;;;6.50;;
12631;SDS011;6381;45.748;12.106;2024-02-23T05:04:14;8.37;;;6.27;;
12631;SDS011;6381;45.748;12.106;2024-02-23T05:06:46;9.80;;;6.57;;
12631;SDS011;6381;45.748;12.106;2024-02-23T05:09:15;9.17;;;6.47;;
12631;SDS011;6381;45.748;12.106;2024-02-23T05:11:46;10.80;;;7.70;;
12631;SDS011;6381;45.748;12.106;2024-02-23T05:14:16;8.17;;;7.30;;
12631;SDS011;6381;45.748;12.106;2024-02-23T05:16:45;10.67;;;7.90;;
12631;SDS011;6381;45.748;12.106;2024-02-23T05:19:15;9.40;;;7.30;;
12631;SDS011;6381;45.748;12.106;2024-02-23T05:21:47;9.97;;;6.70;;
12631;SDS011;6381;45.748;12.106;2024-02-23T05:24:17;9.83;;;7.30;;
12631;SDS011;6381;45.748;12.106;2024-02-23T05:26:47;9.27;;;7.00;;
12631;SDS011;6381;45.748;12.106;2024-02-23T05:29:17;10.83;;;7.87;;
12631;SDS011;6381;45.748;12.106;2024-02-23T05:31:49;12.40;;;8.33;;
12631;SDS011;6381;45.748;12.106;2024-02-23T05:34:20;8.43;;;7.53;;
12631;SDS011;6381;45.748;12.106;2024-02-23T05:36:52;10.03;;;8.27;;
12631;SDS011;6381;45.748;12.106;2024-02-23T05:39:21;12.97;;;8.83;;
12631;SDS011;6381;45.748;12.106;2024-02-23T05:41:51;11.97;;;8.53;;
12631;SDS011;6381;45.748;12.106;2024-02-23T05:44:21;9.80;;;8.17;;
12631;SDS011;6381;45.748;12.106;2024-02-23T05:46:52;11.43;;;8.20;;
12631;SDS011;6381;45.748;12.106;2024-02-23T05:49:22;9.70;;;8.70;;
12631;SDS011;6381;45.748;12.106;2024-02-23T05:51:53;13.10;;;8.73;;
12631;SDS011;6381;45.748;12.106;2024-02-23T05:54:23;13.03;;;7.97;;
12631;SDS011;6381;45.748;12.106;2024-02-23T05:56:53;9.77;;;8.77;;
12631;SDS011;6381;45.748;12.106;2024-02-23T05:59:23;11.33;;;8.40;;
12631;SDS011;6381;45.748;12.106;2024-02-23T06:01:55;14.27;;;9.20;;
12631;SDS011;6381;45.748;12.106;2024-02-23T06:04:25;12.47;;;8.83;;
12631;SDS011;6381;45.748;12.106;2024-02-23T06:06:57;11.20;;;8.90;;
12631;SDS011;6381;45.748;12.106;2024-02-23T06:09:27;13.47;;;8.70;;
12631;SDS011;6381;45.748;12.106;2024-02-23T06:11:57;11.80;;;8.50;;
12631;SDS011;6381;45.748;12.106;2024-02-23T06:14:27;11.73;;;8.07;;
12631;SDS011;6381;45.748;12.106;2024-02-23T06:16:58;14.87;;;8.73;;
12631;SDS011;6381;45.748;12.106;2024-02-23T06:19:28;13.90;;;8.30;;
12631;SDS011;6381;45.748;12.106;2024-02-23T06:21:59;10.50;;;8.33;;
12631;SDS011;6381;45.748;12.106;2024-02-23T06:24:29;12.83;;;8.27;;
12631;SDS011;6381;45.748;12.106;2024-02-23T06:26:59;14.50;;;8.53;;
12631;SDS011;6381;45.748;12.106;2024-02-23T06:29:30;15.63;;;9.93;;
12631;SDS011;6381;45.748;12.106;2024-02-23T06:32:00;13.80;;;9.17;;
12631;SDS011;6381;45.748;12.106;2024-02-23T06:34:30;14.77;;;9.63;;
12631;SDS011;6381;45.748;12.106;2024-02-23T06:37:02;13.57;;;8.80;;
12631;SDS011;6381;45.748;12.106;2024-02-23T06:39:33;13.60;;;9.70;;
12631;SDS011;6381;45.748;12.106;2024-02-23T06:42:04;10.47;;;8.23;;
12631;SDS011;6381;45.748;12.106;2024-02-23T06:44:34;10.07;;;8.27;;
12631;SDS011;6381;45.748;12.106;2024-02-23T06:47:05;12.80;;;8.97;;
12631;SDS011;6381;45.748;12.106;2024-02-23T06:49:36;13.80;;;8.90;;
12631;SDS011;6381;45.748;12.106;2024-02-23T06:52:07;12.90;;;9.43;;
12631;SDS011;6381;45.748;12.106;2024-02-23T06:54:37;13.20;;;8.57;;
12631;SDS011;6381;45.748;12.106;2024-02-23T06:57:07;13.50;;;9.53;;
12631;SDS011;6381;45.748;12.106;2024-02-23T06:59:37;12.53;;;8.50;;
12631;SDS011;6381;45.748;12.106;2024-02-23T07:02:07;13.03;;;8.87;;
12631;SDS011;6381;45.748;12.106;2024-02-23T07:04:38;10.77;;;8.80;;
12631;SDS011;6381;45.748;12.106;2024-02-23T07:07:09;13.47;;;10.47;;
12631;SDS011;6381;45.748;12.106;2024-02-23T07:09:40;10.43;;;8.27;;
12631;SDS011;6381;45.748;12.106;2024-02-23T07:12:09;13.13;;;9.83;;
12631;SDS011;6381;45.748;12.106;2024-02-23T07:14:41;11.97;;;8.67;;
12631;SDS011;6381;45.748;12.106;2024-02-23T07:17:11;12.00;;;9.43;;
12631;SDS011;6381;45.748;12.106;2024-02-23T07:19:41;12.93;;;9.37;;
12631;SDS011;6381;45.748;12.106;2024-02-23T07:22:13;13.53;;;9.17;;
12631;SDS011;6381;45.748;12.106;2024-02-23T07:24:43;12.47;;;9.97;;
12631;SDS011;6381;45.748;12.106;2024-02-23T07:27:13;14.70;;;9.97;;
12631;SDS011;6381;45.748;12.106;2024-02-23T07:29:43;14.43;;;10.30;;
12631;SDS011;6381;45.748;12.106;2024-02-23T07:32:12;13.63;;;9.20;;
12631;SDS011;6381;45.748;12.106;2024-02-23T07:34:43;12.83;;;8.73;;
12631;SDS011;6381;45.748;12.106;2024-02-23T07:37:15;10.03;;;8.70;;
12631;SDS011;6381;45.748;12.106;2024-02-23T07:39:44;13.23;;;9.30;;
12631;SDS011;6381;45.748;12.106;2024-02-23T07:42:16;12.63;;;9.57;;
12631;SDS011;6381;45.748;12.106;2024-02-23T07:44:46;12.60;;;8.80;;
12631;SDS011;6381;45.748;12.106;2024-02-23T07:47:16;12.27;;;9.50;;
12631;SDS011;6381;45.748;12.106;2024-02-23T07:49:46;10.87;;;8.90;;
12631;SDS011;6381;45.748;12.106;2024-02-23T07:52:18;10.73;;;8.67;;
12631;SDS011;6381;45.748;12.106;2024-02-23T07:54:51;12.10;;;9.17;;
12631;SDS011;6381;45.748;12.106;2024-02-23T07:57:21;11.20;;;8.93;;
12631;SDS011;6381;45.748;12.106;2024-02-23T07:59:51;11.30;;;8.63;;
12631;SDS011;6381;45.748;12.106;2024-02-23T08:02:20;12.00;;;8.23;;
12631;SDS011;6381;45.748;12.106;2024-02-23T08:04:51;12.70;;;8.53;;
12631;SDS011;6381;45.748;12.106;2024-02-23T08:07:23;13.90;;;9.10;;
12631;SDS011;6381;45.748;12.106;2024-02-23T08:09:53;11.17;;;8.30;;
12631;SDS011;6381;45.748;12.106;2024-02-23T08:12:23;11.43;;;8.30;;
12631;SDS011;6381;45.748;12.106;2024-02-23T08:14:53;11.63;;;9.60;;
12631;SDS011;6381;45.748;12.106;2024-02-23T08:17:23;12.37;;;7.90;;
12631;SDS011;6381;45.748;12.106;2024-02-23T08:19:54;9.63;;;8.13;;
12631;SDS011;6381;45.748;12.106;2024-02-23T08:22:25;14.17;;;8.43;;
12631;SDS011;6381;45.748;12.106;2024-02-23T08:24:55;14.40;;;8.27;;
12631;SDS011;6381;45.748;12.106;2024-02-23T08:27:25;12.93;;;8.53;;
12631;SDS011;6381;45.748;12.106;2024-02-23T08:29:55;11.77;;;7.57;;
12631;SDS011;6381;45.748;12.106;2024-02-23T08:32:25;15.90;;;8.90;;
12631;SDS011;6381;45.748;12.106;2024-02-23T08:34:55;11.43;;;7.03;;
12631;SDS011;6381;45.748;12.106;2024-02-23T08:37:29;11.53;;;7.17;;
12631;SDS011;6381;45.748;12.106;2024-02-23T08:39:59;11.20;;;7.93;;
12631;SDS011;6381;45.748;12.106;2024-02-23T08:42:32;10.00;;;8.23;;
12631;SDS011;6381;45.748;12.106;2024-02-23T08:45:02;10.63;;;7.67;;
12631;SDS011;6381;45.748;12.106;2024-02-23T08:47:32;11.23;;;7.67;;
12631;SDS011;6381;45.748;12.106;2024-02-23T08:50:03;10.50;;;7.50;;
12631;SDS011;6381;45.748;12.106;2024-02-23T08:52:35;9.03;;;7.77;;
12631;SDS011;6381;45.748;12.106;2024-02-23T08:55:05;9.90;;;7.97;;
12631;SDS011;6381;45.748;12.106;2024-02-23T08:57:35;11.00;;;7.97;;
12631;SDS011;6381;45.748;12.106;2024-02-23T09:00:05;9.63;;;7.27;;
12631;SDS011;6381;45.748;12.106;2024-02-23T09:02:36;10.33;;;7.30;;
12631;SDS011;6381;45.748;12.106;2024-02-23T09:05:06;8.60;;;6.80;;
12631;SDS011;6381;45.748;12.106;2024-02-23T09:07:38;8.30;;;7.03;;
12631;SDS011;6381;45.748;12.106;2024-02-23T09:10:08;11.47;;;8.07;;
12631;SDS011;6381;45.748;12.106;2024-02-23T09:12:39;11.10;;;7.17;;
12631;SDS011;6381;45.748;12.106;2024-02-23T09:15:10;9.17;;;7.27;;
12631;SDS011;6381;45.748;12.106;2024-02-23T09:17:40;11.37;;;7.73;;
12631;SDS011;6381;45.748;12.106;2024-02-23T09:20:10;9.90;;;7.60;;
12631;SDS011;6381;45.748;12.106;2024-02-23T09:22:42;10.07;;;7.33;;
12631;SDS011;6381;45.748;12.106;2024-02-23T09:25:11;9.73;;;7.33;;
12631;SDS011;6381;45.748;12.106;2024-02-23T09:27:41;11.80;;;7.23;;
12631;SDS011;6381;45.748;12.106;2024-02-23T09:30:12;10.83;;;7.63;;
12631;SDS011;6381;45.748;12.106;2024-02-23T09:32:42;10.00;;;6.53;;
12631;SDS011;6381;45.748;12.106;2024-02-23T09:35:13;9.30;;;6.30;;
12631;SDS011;6381;45.748;12.106;2024-02-23T09:37:44;8.73;;;6.70;;
12631;SDS011;6381;45.748;12.106;2024-02-23T09:40:15;11.93;;;7.53;;
12631;SDS011;6381;45.748;12.106;2024-02-23T09:42:48;10.30;;;6.63;;
12631;SDS011;6381;45.748;12.106;2024-02-23T09:45:24;9.23;;;6.55;;
12631;SDS011;6381;45.748;12.106;2024-02-23T09:47:56;10.98;;;7.00;;
12631;SDS011;6381;45.748;12.106;2024-02-23T09:50:26;8.87;;;7.50;;
12631;SDS011;6381;45.748;12.106;2024-02-23T09:52:59;12.88;;;7.70;;
12631;SDS011;6381;45.748;12.106;2024-02-23T09:55:35;12.43;;;7.60;;
12631;SDS011;6381;45.748;12.106;2024-02-23T09:58:05;9.37;;;6.87;;
12631;SDS011;6381;45.748;12.106;2024-02-23T10:00:37;9.80;;;6.57;;
12631;SDS011;6381;45.748;12.106;2024-02-23T10:03:07;12.93;;;6.80;;
12631;SDS011;6381;45.748;12.106;2024-02-23T10:05:37;9.97;;;6.57;;
12631;SDS011;6381;45.748;12.106;2024-02-23T10:08:10;11.83;;;8.47;;
12631;SDS011;6381;45.748;12.106;2024-02-23T10:10:40;11.40;;;7.77;;
12631;SDS011;6381;45.748;12.106;2024-02-23T10:13:10;10.23;;;7.10;;
12631;SDS011;6381;45.748;12.106;2024-02-23T10:15:40;13.43;;;7.73;;
12631;SDS011;6381;45.748;12.106;2024-02-23T10:18:29;9.87;;;7.53;;
12631;SDS011;6381;45.748;12.106;2024-02-23T10:20:59;10.03;;;7.80;;
12631;SDS011;6381;45.748;12.106;2024-02-23T10:23:31;10.43;;;7.27;;
12631;SDS011;6381;45.748;12.106;2024-02-23T10:26:04;10.40;;;7.77;;
12631;SDS011;6381;45.748;12.106;2024-02-23T10:28:36;10.77;;;7.77;;
12631;SDS011;6381;45.748;12.106;2024-02-23T10:31:07;9.97;;;7.37;;
12631;SDS011;6381;45.748;12.106;2024-02-23T10:33:39;10.50;;;7.67;;
12631;SDS011;6381;45.748;12.106;2024-02-23T10:36:10;9.80;;;7.20;;
12631;SDS011;6381;45.748;12.106;2024-02-23T10:38:46;14.60;;;13.10;;
12631;SDS011;6381;45.748;12.106;2024-02-23T10:41:17;9.67;;;8.10;;
12631;SDS011;6381;45.748;12.106;2024-02-23T10:43:48;12.43;;;8.23;;
12631;SDS011;6381;45.748;12.106;2024-02-23T10:46:20;11.07;;;8.43;;
12631;SDS011;6381;45.748;12.106;2024-02-23T10:48:51;11.67;;;8.20;;
12631;SDS011;6381;45.748;12.106;2024-02-23T10:51:24;15.40;;;10.40;;
12631;SDS011;6381;45.748;12.106;2024-02-23T10:53:56;12.97;;;10.37;;
12631;SDS011;6381;45.748;12.106;2024-02-23T10:56:26;13.20;;;8.77;;
12631;SDS011;6381;45.748;12.106;2024-02-23T10:58:56;13.80;;;10.47;;
12631;SDS011;6381;45.748;12.106;2024-02-23T11:01:26;13.80;;;9.27;;
12631;SDS011;6381;45.748;12.106;2024-02-23T11:03:56;14.40;;;9.33;;
12631;SDS011;6381;45.748;12.106;2024-02-23T11:06:27;13.87;;;9.80;;
12631;SDS011;6381;45.748;12.106;2024-02-23T11:09:06;14.27;;;8.57;;
12631;SDS011;6381;45.748;12.106;2024-02-23T11:11:36;11.53;;;7.47;;
12631;SDS011;6381;45.748;12.106;2024-02-23T11:14:07;10.87;;;7.67;;
12631;SDS011;6381;45.748;12.106;2024-02-23T11:16:38;11.40;;;7.00;;
12631;SDS011;6381;45.748;12.106;2024-02-23T11:19:09;9.00;;;6.27;;
12631;SDS011;6381;45.748;12.106;2024-02-23T11:21:41;10.63;;;6.80;;
12631;SDS011;6381;45.748;12.106;2024-02-23T11:24:15;9.10;;;6.53;;
12631;SDS011;6381;45.748;12.106;2024-02-23T11:26:45;9.43;;;6.90;;
12631;SDS011;6381;45.748;12.106;2024-02-23T11:29:18;10.30;;;8.07;;
12631;SDS011;6381;45.748;12.106;2024-02-23T11:31:48;11.70;;;8.27;;
12631;SDS011;6381;45.748;12.106;2024-02-23T11:34:23;13.43;;;8.03;;
12631;SDS011;6381;45.748;12.106;2024-02-23T11:36:55;12.90;;;8.37;;
12631;SDS011;6381;45.748;12.106;2024-02-23T11:39:29;11.77;;;8.80;;
12631;SDS011;6381;45.748;12.106;2024-02-23T11:41:59;12.60;;;8.57;;
12631;SDS011;6381;45.748;12.106;2024-02-23T11:44:31;12.47;;;8.47;;
12631;SDS011;6381;45.748;12.106;2024-02-23T11:47:00;10.07;;;7.23;;
12631;SDS011;6381;45.748;12.106;2024-02-23T11:49:31;12.70;;;8.50;;
12631;SDS011;6381;45.748;12.106;2024-02-23T11:52:02;11.33;;;7.83;;
12631;SDS011;6381;45.748;12.106;2024-02-23T11:54:34;12.87;;;7.87;;
12631;SDS011;6381;45.748;12.106;2024-02-23T11:57:04;10.67;;;8.20;;
12631;SDS011;6381;45.748;12.106;2024-02-23T11:59:35;10.63;;;7.47;;
12631;SDS011;6381;45.748;12.106;2024-02-23T12:02:05;9.87;;;7.93;;
12631;SDS011;6381;45.748;12.106;2024-02-23T12:04:36;11.63;;;8.57;;
12631;SDS011;6381;45.748;12.106;2024-02-23T12:07:06;12.73;;;8.70;;
12631;SDS011;6381;45.748;12.106;2024-02-23T12:09:38;12.83;;;9.23;;
12631;SDS011;6381;45.748;12.106;2024-02-23T12:12:09;13.90;;;11.00;;
12631;SDS011;6381;45.748;12.106;2024-02-23T12:14:39;19.17;;;15.97;;
12631;SDS011;6381;45.748;12.106;2024-02-23T12:17:10;16.77;;;12.07;;
12631;SDS011;6381;45.748;12.106;2024-02-23T12:19:39;20.37;;;16.10;;
12631;SDS011;6381;45.748;12.106;2024-02-23T12:22:10;19.87;;;16.63;;
12631;SDS011;6381;45.748;12.106;2024-02-23T12:24:42;16.50;;;14.47;;
12631;SDS011;6381;45.748;12.106;2024-02-23T12:27:11;14.90;;;11.57;;
12631;SDS011;6381;45.748;12.106;2024-02-23T12:29:50;16.30;;;12.10;;
12631;SDS011;6381;45.748;12.106;2024-02-23T12:32:21;13.10;;;10.97;;
12631;SDS011;6381;45.748;12.106;2024-02-23T12:34:52;11.50;;;9.80;;
12631;SDS011;6381;45.748;12.106;2024-02-23T12:37:21;10.87;;;7.90;;
12631;SDS011;6381;45.748;12.106;2024-02-23T12:39:53;13.27;;;12.03;;
12631;SDS011;6381;45.748;12.106;2024-02-23T12:42:23;8.67;;;7.77;;
12631;SDS011;6381;45.748;12.106;2024-02-23T12:44:53;9.37;;;6.60;;
12631;SDS011;6381;45.748;12.106;2024-02-23T12:47:24;12.23;;;7.03;;
12631;SDS011;6381;45.748;12.106;2024-02-23T12:49:53;11.47;;;7.50;;
12631;SDS011;6381;45.748;12.106;2024-02-23T12:52:24;14.27;;;10.90;;
12631;SDS011;6381;45.748;12.106;2024-02-23T12:54:55;21.13;;;16.33;;
12631;SDS011;6381;45.748;12.106;2024-02-23T12:57:25;10.80;;;8.17;;
12631;SDS011;6381;45.748;12.106;2024-02-23T12:59:55;9.67;;;7.10;;
12631;SDS011;6381;45.748;12.106;2024-02-23T13:02:25;10.93;;;6.50;;
12631;SDS011;6381;45.748;12.106;2024-02-23T13:04:55;8.17;;;7.40;;
12631;SDS011;6381;45.748;12.106;2024-02-23T13:07:25;9.37;;;7.07;;
12631;SDS011;6381;45.748;12.106;2024-02-23T13:09:59;8.23;;;7.43;;
12631;SDS011;6381;45.748;12.106;2024-02-23T13:12:29;8.73;;;7.87;;
12631;SDS011;6381;45.748;12.106;2024-02-23T13:14:59;12.67;;;9.47;;
12631;SDS011;6381;45.748;12.106;2024-02-23T13:17:29;10.37;;;8.37;;
12631;SDS011;6381;45.748;12.106;2024-02-23T13:19:59;9.40;;;7.57;;
12631;SDS011;6381;45.748;12.106;2024-02-23T13:22:38;12.57;;;8.43;;
12631;SDS011;6381;45.748;12.106;2024-02-23T13:25:09;12.03;;;8.77;;
12631;SDS011;6381;45.748;12.106;2024-02-23T13:27:39;8.13;;;7.33;;
12631;SDS011;6381;45.748;12.106;2024-02-23T13:30:09;9.20;;;7.73;;
12631;SDS011;6381;45.748;12.106;2024-02-23T13:32:41;9.03;;;7.17;;
12631;SDS011;6381;45.748;12.106;2024-02-23T13:35:11;11.03;;;8.33;;
12631;SDS011;6381;45.748;12.106;2024-02-23T13:37:41;9.20;;;7.40;;
12631;SDS011;6381;45.748;12.106;2024-02-23T13:40:13;10.87;;;8.37;;
12631;SDS011;6381;45.748;12.106;2024-02-23T13:42:43;10.80;;;8.43;;
12631;SDS011;6381;45.748;12.106;2024-02-23T13:45:17;12.53;;;9.23;;
12631;SDS011;6381;45.748;12.106;2024-02-23T13:47:55;12.03;;;9.77;;
12631;SDS011;6381;45.748;12.106;2024-02-23T13:50:26;13.43;;;12.03;;
12631;SDS011;6381;45.748;12.106;2024-02-23T13:52:56;21.43;;;19.43;;
12631;SDS011;6381;45.748;12.106;2024-02-23T13:55:30;22.40;;;20.03;;
12631;SDS011;6381;45.748;12.106;2024-02-23T13:58:01;16.73;;;13.40;;
12631;SDS011;6381;45.748;12.106;2024-02-23T14:00:31;12.10;;;10.50;;
12631;SDS011;6381;45.748;12.106;2024-02-23T14:03:02;13.17;;;10.27;;
12631;SDS011;6381;45.748;12.106;2024-02-23T14:05:33;13.93;;;11.13;;
12631;SDS011;6381;45.748;12.106;2024-02-23T14:08:03;12.63;;;11.17;;
12631;SDS011;6381;45.748;12.106;2024-02-23T14:10:37;14.90;;;13.33;;
12631;SDS011;6381;45.748;12.106;2024-02-23T14:13:07;15.10;;;13.57;;
12631;SDS011;6381;45.748;12.106;2024-02-23T14:15:37;16.17;;;13.57;;
12631;SDS011;6381;45.748;12.106;2024-02-23T14:18:07;16.13;;;13.80;;
12631;SDS011;6381;45.748;12.106;2024-02-23T14:20:37;14.97;;;13.43;;
12631;SDS011;6381;45.748;12.106;2024-02-23T14:23:08;17.17;;;13.90;;
12631;SDS011;6381;45.748;12.106;2024-02-23T14:25:39;16.80;;;14.17;;
12631;SDS011;6381;45.748;12.106;2024-02-23T14:28:09;16.87;;;14.97;;
12631;SDS011;6381;45.748;12.106;2024-02-23T14:30:39;17.83;;;15.07;;
12631;SDS011;6381;45.748;12.106;2024-02-23T14:33:11;15.73;;;14.20;;
12631;SDS011;6381;45.748;12.106;2024-02-23T14:35:41;15.37;;;13.10;;
12631;SDS011;6381;45.748;12.106;2024-02-23T14:38:11;16.60;;;13.73;;
12631;SDS011;6381;45.748;12.106;2024-02-23T14:40:42;18.27;;;15.77;;
12631;SDS011;6381;45.748;12.106;2024-02-23T14:43:12;18.00;;;16.10;;
12631;SDS011;6381;45.748;12.106;2024-02-23T14:45:42;15.30;;;13.53;;
12631;SDS011;6381;45.748;12.106;2024-02-23T14:48:12;22.50;;;17.33;;
12631;SDS011;6381;45.748;12.106;2024-02-23T14:50:43;17.47;;;15.63;;
12631;SDS011;6381;45.748;12.106;2024-02-23T14:53:13;16.90;;;15.10;;